sensor_id;sensor_type;location;lat;lon;timestamp;temperature;humidity
72338;DHT22;60294;64.134;-21.862;2023-04-24T00:00:02;5.00;71.40
72338;DHT22;60294;64.134;-21.862;2023-04-24T00:02:31;4.90;71.30
72338;DHT22;60294;64.134;-21.862;2023-04-24T00:04:58;4.90;71.50
72338;DHT22;60294;64.134;-21.862;2023-04-24T00:07:28;4.90;71.30
72338;DHT22;60294;64.134;-21.862;2023-04-24T00:09:54;4.70;71.30
72338;DHT22;60294;64.134;-21.862;2023-04-24T00:12:20;4.70;71.50
72338;DHT22;60294;64.134;-21.862;2023-04-24T00:14:46;4.70;71.60
72338;DHT22;60294;64.134;-21.862;2023-04-24T00:17:13;4.60;71.80
72338;DHT22;60294;64.134;-21.862;2023-04-24T00:19:38;4.70;72.10
72338;DHT22;60294;64.134;-21.862;2023-04-24T00:22:04;4.70;71.80
72338;DHT22;60294;64.134;-21.862;2023-04-24T00:24:31;4.60;71.60
72338;DHT22;60294;64.134;-21.862;2023-04-24T00:26:57;4.60;71.70
72338;DHT22;60294;64.134;-21.862;2023-04-24T00:29:23;4.50;71.90
72338;DHT22;60294;64.134;-21.862;2023-04-24T00:31:49;4.50;72.40
72338;DHT22;60294;64.134;-21.862;2023-04-24T00:34:14;4.30;72.50
72338;DHT22;60294;64.134;-21.862;2023-04-24T00:36:40;4.10;73.50
72338;DHT22;60294;64.134;-21.862;2023-04-24T00:39:06;4.10;73.80
72338;DHT22;60294;64.134;-21.862;2023-04-24T00:41:34;4.10;73.80
72338;DHT22;60294;64.134;-21.862;2023-04-24T00:44:00;4.10;74.20
72338;DHT22;60294;64.134;-21.862;2023-04-24T00:46:26;4.10;74.70
72338;DHT22;60294;64.134;-21.862;2023-04-24T00:48:52;4.10;75.00
72338;DHT22;60294;64.134;-21.862;2023-04-24T00:51:18;3.90;74.90
72338;DHT22;60294;64.134;-21.862;2023-04-24T00:53:45;3.80;75.70
72338;DHT22;60294;64.134;-21.862;2023-04-24T00:56:11;3.80;75.90
72338;DHT22;60294;64.134;-21.862;2023-04-24T00:58:37;3.60;76.40
72338;DHT22;60294;64.134;-21.862;2023-04-24T01:01:03;3.60;76.80
72338;DHT22;60294;64.134;-21.862;2023-04-24T01:03:33;3.60;77.10
72338;DHT22;60294;64.134;-21.862;2023-04-24T01:05:59;3.60;77.10
72338;DHT22;60294;64.134;-21.862;2023-04-24T01:08:27;3.60;77.10
72338;DHT22;60294;64.134;-21.862;2023-04-24T01:10:54;3.70;77.10
72338;DHT22;60294;64.134;-21.862;2023-04-24T01:13:20;3.60;77.00
72338;DHT22;60294;64.134;-21.862;2023-04-24T01:15:47;3.70;77.20
72338;DHT22;60294;64.134;-21.862;2023-04-24T01:18:14;3.80;76.90
72338;DHT22;60294;64.134;-21.862;2023-04-24T01:20:40;3.90;77.10
72338;DHT22;60294;64.134;-21.862;2023-04-24T01:23:08;3.90;76.90
72338;DHT22;60294;64.134;-21.862;2023-04-24T01:25:34;3.90;76.60
72338;DHT22;60294;64.134;-21.862;2023-04-24T01:28:01;3.90;76.70
72338;DHT22;60294;64.134;-21.862;2023-04-24T01:30:28;3.90;76.60
72338;DHT22;60294;64.134;-21.862;2023-04-24T01:32:55;3.80;75.70
72338;DHT22;60294;64.134;-21.862;2023-04-24T01:35:21;3.80;76.60
72338;DHT22;60294;64.134;-21.862;2023-04-24T01:37:47;3.80;76.20
72338;DHT22;60294;64.134;-21.862;2023-04-24T01:40:13;3.80;76.70
72338;DHT22;60294;64.134;-21.862;2023-04-24T01:42:41;3.80;76.90
72338;DHT22;60294;64.134;-21.862;2023-04-24T01:45:11;3.90;76.80
72338;DHT22;60294;64.134;-21.862;2023-04-24T01:47:38;3.80;76.70
72338;DHT22;60294;64.134;-21.862;2023-04-24T01:50:05;3.90;76.70
72338;DHT22;60294;64.134;-21.862;2023-04-24T01:52:31;3.90;76.50
72338;DHT22;60294;64.134;-21.862;2023-04-24T01:55:03;3.80;76.80
72338;DHT22;60294;64.134;-21.862;2023-04-24T01:57:30;3.80;77.00
72338;DHT22;60294;64.134;-21.862;2023-04-24T01:59:56;3.90;77.60
72338;DHT22;60294;64.134;-21.862;2023-04-24T02:02:22;3.90;77.40
72338;DHT22;60294;64.134;-21.862;2023-04-24T02:04:56;4.00;77.90
72338;DHT22;60294;64.134;-21.862;2023-04-24T02:07:22;4.10;78.10
72338;DHT22;60294;64.134;-21.862;2023-04-24T02:09:48;4.10;78.30
72338;DHT22;60294;64.134;-21.862;2023-04-24T02:12:15;4.20;78.80
72338;DHT22;60294;64.134;-21.862;2023-04-24T02:14:41;4.30;79.00
72338;DHT22;60294;64.134;-21.862;2023-04-24T02:17:12;4.30;79.10
72338;DHT22;60294;64.134;-21.862;2023-04-24T02:19:38;4.40;79.50
72338;DHT22;60294;64.134;-21.862;2023-04-24T02:22:04;4.40;79.60
72338;DHT22;60294;64.134;-21.862;2023-04-24T02:24:30;4.40;79.80
72338;DHT22;60294;64.134;-21.862;2023-04-24T02:26:56;4.20;80.80
72338;DHT22;60294;64.134;-21.862;2023-04-24T02:29:23;4.30;81.60
72338;DHT22;60294;64.134;-21.862;2023-04-24T02:31:49;4.20;81.30
72338;DHT22;60294;64.134;-21.862;2023-04-24T02:34:15;4.30;82.10
72338;DHT22;60294;64.134;-21.862;2023-04-24T02:36:42;4.20;81.70
72338;DHT22;60294;64.134;-21.862;2023-04-24T02:39:09;4.20;82.10
72338;DHT22;60294;64.134;-21.862;2023-04-24T02:41:35;4.30;82.60
72338;DHT22;60294;64.134;-21.862;2023-04-24T02:44:00;4.30;82.60
72338;DHT22;60294;64.134;-21.862;2023-04-24T02:46:26;4.30;82.40
72338;DHT22;60294;64.134;-21.862;2023-04-24T02:48:52;4.30;82.80
72338;DHT22;60294;64.134;-21.862;2023-04-24T02:51:18;4.40;82.80
72338;DHT22;60294;64.134;-21.862;2023-04-24T02:53:44;4.20;82.90
72338;DHT22;60294;64.134;-21.862;2023-04-24T02:56:09;4.20;83.30
72338;DHT22;60294;64.134;-21.862;2023-04-24T02:58:38;4.40;83.30
72338;DHT22;60294;64.134;-21.862;2023-04-24T03:01:04;4.50;83.50
72338;DHT22;60294;64.134;-21.862;2023-04-24T03:03:30;4.60;83.40
72338;DHT22;60294;64.134;-21.862;2023-04-24T03:05:56;4.60;83.20
72338;DHT22;60294;64.134;-21.862;2023-04-24T03:08:22;4.60;82.60
72338;DHT22;60294;64.134;-21.862;2023-04-24T03:10:48;4.60;82.40
72338;DHT22;60294;64.134;-21.862;2023-04-24T03:13:16;4.60;82.70
72338;DHT22;60294;64.134;-21.862;2023-04-24T03:15:42;4.60;83.00
72338;DHT22;60294;64.134;-21.862;2023-04-24T03:18:08;4.60;83.10
72338;DHT22;60294;64.134;-21.862;2023-04-24T03:20:35;4.60;83.60
72338;DHT22;60294;64.134;-21.862;2023-04-24T03:23:02;4.60;83.40
72338;DHT22;60294;64.134;-21.862;2023-04-24T03:25:28;4.70;83.60
72338;DHT22;60294;64.134;-21.862;2023-04-24T03:27:54;4.70;83.20
72338;DHT22;60294;64.134;-21.862;2023-04-24T03:30:20;4.70;83.10
72338;DHT22;60294;64.134;-21.862;2023-04-24T03:32:46;4.80;83.20
72338;DHT22;60294;64.134;-21.862;2023-04-24T03:35:12;4.80;82.80
72338;DHT22;60294;64.134;-21.862;2023-04-24T03:37:38;4.70;82.30
72338;DHT22;60294;64.134;-21.862;2023-04-24T03:40:04;4.80;82.60
72338;DHT22;60294;64.134;-21.862;2023-04-24T03:42:31;4.80;82.40
72338;DHT22;60294;64.134;-21.862;2023-04-24T03:44:57;4.80;82.40
72338;DHT22;60294;64.134;-21.862;2023-04-24T03:47:23;4.80;82.20
72338;DHT22;60294;64.134;-21.862;2023-04-24T03:49:49;4.80;82.40
72338;DHT22;60294;64.134;-21.862;2023-04-24T03:52:14;4.80;82.20
72338;DHT22;60294;64.134;-21.862;2023-04-24T03:54:40;4.80;82.20
72338;DHT22;60294;64.134;-21.862;2023-04-24T03:57:06;4.70;82.20
72338;DHT22;60294;64.134;-21.862;2023-04-24T03:59:32;4.80;82.20
72338;DHT22;60294;64.134;-21.862;2023-04-24T04:01:58;4.80;82.30
72338;DHT22;60294;64.134;-21.862;2023-04-24T04:04:24;4.80;82.10
72338;DHT22;60294;64.134;-21.862;2023-04-24T04:06:49;4.80;81.90
72338;DHT22;60294;64.134;-21.862;2023-04-24T04:09:15;4.80;81.70
72338;DHT22;60294;64.134;-21.862;2023-04-24T04:11:41;4.80;81.90
72338;DHT22;60294;64.134;-21.862;2023-04-24T04:14:07;4.80;81.80
72338;DHT22;60294;64.134;-21.862;2023-04-24T04:16:33;4.70;81.80
72338;DHT22;60294;64.134;-21.862;2023-04-24T04:18:58;4.70;81.80
72338;DHT22;60294;64.134;-21.862;2023-04-24T04:21:24;4.70;81.90
72338;DHT22;60294;64.134;-21.862;2023-04-24T04:23:50;4.60;81.80
72338;DHT22;60294;64.134;-21.862;2023-04-24T04:26:16;4.60;81.90
72338;DHT22;60294;64.134;-21.862;2023-04-24T04:28:42;4.60;81.90
72338;DHT22;60294;64.134;-21.862;2023-04-24T04:31:09;4.60;82.10
72338;DHT22;60294;64.134;-21.862;2023-04-24T04:33:35;4.70;82.10
72338;DHT22;60294;64.134;-21.862;2023-04-24T04:36:03;4.60;82.00
72338;DHT22;60294;64.134;-21.862;2023-04-24T04:38:29;4.70;81.90
72338;DHT22;60294;64.134;-21.862;2023-04-24T04:40:55;4.60;81.90
72338;DHT22;60294;64.134;-21.862;2023-04-24T04:43:24;4.70;81.90
72338;DHT22;60294;64.134;-21.862;2023-04-24T04:45:51;4.70;81.90
72338;DHT22;60294;64.134;-21.862;2023-04-24T04:48:17;4.70;81.80
72338;DHT22;60294;64.134;-21.862;2023-04-24T04:50:44;4.70;81.70
72338;DHT22;60294;64.134;-21.862;2023-04-24T04:53:11;4.70;81.70
72338;DHT22;60294;64.134;-21.862;2023-04-24T04:55:37;4.70;81.80
72338;DHT22;60294;64.134;-21.862;2023-04-24T04:58:03;4.70;81.80
72338;DHT22;60294;64.134;-21.862;2023-04-24T05:00:29;4.70;81.70
72338;DHT22;60294;64.134;-21.862;2023-04-24T05:03:00;4.70;81.70
72338;DHT22;60294;64.134;-21.862;2023-04-24T05:05:25;4.70;81.50
72338;DHT22;60294;64.134;-21.862;2023-04-24T05:07:51;4.70;81.50
72338;DHT22;60294;64.134;-21.862;2023-04-24T05:10:17;4.70;81.40
72338;DHT22;60294;64.134;-21.862;2023-04-24T05:12:43;4.70;81.40
72338;DHT22;60294;64.134;-21.862;2023-04-24T05:15:09;4.70;81.20
72338;DHT22;60294;64.134;-21.862;2023-04-24T05:17:35;4.70;80.90
72338;DHT22;60294;64.134;-21.862;2023-04-24T05:20:02;4.60;81.20
72338;DHT22;60294;64.134;-21.862;2023-04-24T05:22:31;4.70;81.10
72338;DHT22;60294;64.134;-21.862;2023-04-24T05:24:57;4.70;81.10
72338;DHT22;60294;64.134;-21.862;2023-04-24T05:27:23;4.70;80.80
72338;DHT22;60294;64.134;-21.862;2023-04-24T05:29:48;4.70;80.70
72338;DHT22;60294;64.134;-21.862;2023-04-24T05:32:14;4.60;80.40
72338;DHT22;60294;64.134;-21.862;2023-04-24T05:34:40;4.70;80.30
72338;DHT22;60294;64.134;-21.862;2023-04-24T05:37:06;4.70;80.30
72338;DHT22;60294;64.134;-21.862;2023-04-24T05:39:35;4.80;80.10
72338;DHT22;60294;64.134;-21.862;2023-04-24T05:42:01;4.70;79.90
72338;DHT22;60294;64.134;-21.862;2023-04-24T05:44:27;4.70;79.80
72338;DHT22;60294;64.134;-21.862;2023-04-24T05:46:53;4.70;79.70
72338;DHT22;60294;64.134;-21.862;2023-04-24T05:49:21;4.70;79.60
72338;DHT22;60294;64.134;-21.862;2023-04-24T05:51:47;4.70;79.60
72338;DHT22;60294;64.134;-21.862;2023-04-24T05:54:13;4.60;79.60
72338;DHT22;60294;64.134;-21.862;2023-04-24T05:56:39;4.60;79.80
72338;DHT22;60294;64.134;-21.862;2023-04-24T05:59:05;4.60;79.90
72338;DHT22;60294;64.134;-21.862;2023-04-24T06:01:31;4.60;79.80
72338;DHT22;60294;64.134;-21.862;2023-04-24T06:03:57;4.60;79.70
72338;DHT22;60294;64.134;-21.862;2023-04-24T06:06:24;4.50;79.90
72338;DHT22;60294;64.134;-21.862;2023-04-24T06:08:50;4.60;80.00
72338;DHT22;60294;64.134;-21.862;2023-04-24T06:11:15;4.60;80.10
72338;DHT22;60294;64.134;-21.862;2023-04-24T06:13:41;4.50;79.90
72338;DHT22;60294;64.134;-21.862;2023-04-24T06:16:07;4.60;79.90
72338;DHT22;60294;64.134;-21.862;2023-04-24T06:18:33;4.50;79.90
72338;DHT22;60294;64.134;-21.862;2023-04-24T06:20:59;4.50;79.80
72338;DHT22;60294;64.134;-21.862;2023-04-24T06:23:25;4.60;79.90
72338;DHT22;60294;64.134;-21.862;2023-04-24T06:25:51;4.50;79.60
72338;DHT22;60294;64.134;-21.862;2023-04-24T06:28:17;4.50;79.60
72338;DHT22;60294;64.134;-21.862;2023-04-24T06:30:43;4.60;79.60
72338;DHT22;60294;64.134;-21.862;2023-04-24T06:33:09;4.50;79.30
72338;DHT22;60294;64.134;-21.862;2023-04-24T06:35:36;4.40;79.30
72338;DHT22;60294;64.134;-21.862;2023-04-24T06:38:03;4.40;79.20
72338;DHT22;60294;64.134;-21.862;2023-04-24T06:40:29;4.50;79.30
72338;DHT22;60294;64.134;-21.862;2023-04-24T06:42:55;4.50;79.10
72338;DHT22;60294;64.134;-21.862;2023-04-24T06:45:21;4.50;78.80
72338;DHT22;60294;64.134;-21.862;2023-04-24T06:47:47;4.50;79.00
72338;DHT22;60294;64.134;-21.862;2023-04-24T06:50:13;4.60;79.00
72338;DHT22;60294;64.134;-21.862;2023-04-24T06:52:39;4.60;78.90
72338;DHT22;60294;64.134;-21.862;2023-04-24T06:55:05;4.60;78.80
72338;DHT22;60294;64.134;-21.862;2023-04-24T06:57:31;4.70;78.90
72338;DHT22;60294;64.134;-21.862;2023-04-24T06:59:57;4.60;78.60
72338;DHT22;60294;64.134;-21.862;2023-04-24T07:02:23;4.70;78.60
72338;DHT22;60294;64.134;-21.862;2023-04-24T07:04:49;4.60;78.20
72338;DHT22;60294;64.134;-21.862;2023-04-24T07:07:15;4.60;78.60
72338;DHT22;60294;64.134;-21.862;2023-04-24T07:09:41;4.70;78.70
72338;DHT22;60294;64.134;-21.862;2023-04-24T07:12:11;4.80;78.30
72338;DHT22;60294;64.134;-21.862;2023-04-24T07:39:04;4.70;78.00
72338;DHT22;60294;64.134;-21.862;2023-04-24T07:41:31;5.60;75.90
72338;DHT22;60294;64.134;-21.862;2023-04-24T07:43:57;5.70;75.50
72338;DHT22;60294;64.134;-21.862;2023-04-24T07:46:24;5.50;75.40
72338;DHT22;60294;64.134;-21.862;2023-04-24T07:48:50;5.50;75.70
72338;DHT22;60294;64.134;-21.862;2023-04-24T07:51:16;5.50;75.30
72338;DHT22;60294;64.134;-21.862;2023-04-24T07:53:43;5.60;75.40
72338;DHT22;60294;64.134;-21.862;2023-04-24T07:56:09;5.50;75.10
72338;DHT22;60294;64.134;-21.862;2023-04-24T07:58:35;5.70;75.10
72338;DHT22;60294;64.134;-21.862;2023-04-24T08:01:01;5.60;75.20
72338;DHT22;60294;64.134;-21.862;2023-04-24T08:03:27;5.60;74.90
72338;DHT22;60294;64.134;-21.862;2023-04-24T08:05:52;5.80;75.00
72338;DHT22;60294;64.134;-21.862;2023-04-24T08:08:22;5.70;74.60
72338;DHT22;60294;64.134;-21.862;2023-04-24T08:10:48;5.60;74.20
72338;DHT22;60294;64.134;-21.862;2023-04-24T08:13:14;5.80;74.30
72338;DHT22;60294;64.134;-21.862;2023-04-24T08:15:39;5.90;74.20
72338;DHT22;60294;64.134;-21.862;2023-04-24T08:18:05;5.80;73.90
72338;DHT22;60294;64.134;-21.862;2023-04-24T08:20:31;5.90;74.00
72338;DHT22;60294;64.134;-21.862;2023-04-24T08:22:57;6.10;73.80
72338;DHT22;60294;64.134;-21.862;2023-04-24T08:25:23;6.20;73.30
72338;DHT22;60294;64.134;-21.862;2023-04-24T08:27:50;6.40;73.30
72338;DHT22;60294;64.134;-21.862;2023-04-24T08:30:17;6.40;72.40
72338;DHT22;60294;64.134;-21.862;2023-04-24T08:32:43;6.50;72.30
72338;DHT22;60294;64.134;-21.862;2023-04-24T08:35:09;6.40;72.00
72338;DHT22;60294;64.134;-21.862;2023-04-24T08:37:35;6.50;71.90
72338;DHT22;60294;64.134;-21.862;2023-04-24T08:40:06;6.50;71.60
72338;DHT22;60294;64.134;-21.862;2023-04-24T08:42:37;6.60;71.10
72338;DHT22;60294;64.134;-21.862;2023-04-24T08:45:03;6.70;70.60
72338;DHT22;60294;64.134;-21.862;2023-04-24T08:47:29;6.90;70.50
72338;DHT22;60294;64.134;-21.862;2023-04-24T08:49:57;7.10;69.80
72338;DHT22;60294;64.134;-21.862;2023-04-24T08:52:25;7.30;69.10
72338;DHT22;60294;64.134;-21.862;2023-04-24T08:54:52;7.20;68.20
72338;DHT22;60294;64.134;-21.862;2023-04-24T08:57:19;7.50;68.10
72338;DHT22;60294;64.134;-21.862;2023-04-24T08:59:45;7.50;67.50
72338;DHT22;60294;64.134;-21.862;2023-04-24T09:02:13;7.60;66.10
72338;DHT22;60294;64.134;-21.862;2023-04-24T09:04:40;7.60;66.20
72338;DHT22;60294;64.134;-21.862;2023-04-24T09:07:06;7.50;65.30
72338;DHT22;60294;64.134;-21.862;2023-04-24T09:09:34;7.40;66.30
72338;DHT22;60294;64.134;-21.862;2023-04-24T09:12:01;7.60;66.20
72338;DHT22;60294;64.134;-21.862;2023-04-24T09:14:29;7.60;65.30
72338;DHT22;60294;64.134;-21.862;2023-04-24T09:16:57;7.40;65.10
72338;DHT22;60294;64.134;-21.862;2023-04-24T09:19:23;7.40;66.10
72338;DHT22;60294;64.134;-21.862;2023-04-24T09:21:49;7.70;64.50
72338;DHT22;60294;64.134;-21.862;2023-04-24T09:24:17;7.60;63.90
72338;DHT22;60294;64.134;-21.862;2023-04-24T09:26:43;7.60;63.40
72338;DHT22;60294;64.134;-21.862;2023-04-24T09:29:17;7.80;64.30
72338;DHT22;60294;64.134;-21.862;2023-04-24T09:31:45;7.70;63.50
72338;DHT22;60294;64.134;-21.862;2023-04-24T09:34:12;7.70;63.40
72338;DHT22;60294;64.134;-21.862;2023-04-24T09:36:39;8.00;63.80
72338;DHT22;60294;64.134;-21.862;2023-04-24T09:39:08;8.00;63.90
72338;DHT22;60294;64.134;-21.862;2023-04-24T09:41:50;8.10;63.10
72338;DHT22;60294;64.134;-21.862;2023-04-24T09:44:18;7.70;62.30
72338;DHT22;60294;64.134;-21.862;2023-04-24T09:46:51;8.00;62.50
72338;DHT22;60294;64.134;-21.862;2023-04-24T09:49:27;8.20;62.90
72338;DHT22;60294;64.134;-21.862;2023-04-24T09:52:06;8.30;62.30
72338;DHT22;60294;64.134;-21.862;2023-04-24T09:54:32;8.30;61.30
72338;DHT22;60294;64.134;-21.862;2023-04-24T09:56:59;8.30;60.90
72338;DHT22;60294;64.134;-21.862;2023-04-24T09:59:26;8.40;60.90
72338;DHT22;60294;64.134;-21.862;2023-04-24T10:01:51;8.40;60.50
72338;DHT22;60294;64.134;-21.862;2023-04-24T10:04:22;8.40;60.70
72338;DHT22;60294;64.134;-21.862;2023-04-24T10:06:50;8.20;60.50
72338;DHT22;60294;64.134;-21.862;2023-04-24T10:09:21;8.40;60.10
72338;DHT22;60294;64.134;-21.862;2023-04-24T10:11:49;8.40;59.70
72338;DHT22;60294;64.134;-21.862;2023-04-24T10:14:19;8.20;60.40
72338;DHT22;60294;64.134;-21.862;2023-04-24T10:16:49;8.40;61.10
72338;DHT22;60294;64.134;-21.862;2023-04-24T10:19:16;8.40;59.80
72338;DHT22;60294;64.134;-21.862;2023-04-24T10:21:44;8.60;59.70
72338;DHT22;60294;64.134;-21.862;2023-04-24T10:24:17;8.60;59.80
72338;DHT22;60294;64.134;-21.862;2023-04-24T10:26:45;8.50;59.40
72338;DHT22;60294;64.134;-21.862;2023-04-24T10:29:12;8.40;59.80
72338;DHT22;60294;64.134;-21.862;2023-04-24T10:31:39;8.30;60.40
72338;DHT22;60294;64.134;-21.862;2023-04-24T10:34:09;8.10;59.20
72338;DHT22;60294;64.134;-21.862;2023-04-24T10:36:38;7.80;59.50
72338;DHT22;60294;64.134;-21.862;2023-04-24T10:39:09;7.90;58.70
72338;DHT22;60294;64.134;-21.862;2023-04-24T10:41:40;8.10;59.90
72338;DHT22;60294;64.134;-21.862;2023-04-24T10:44:13;8.20;58.80
72338;DHT22;60294;64.134;-21.862;2023-04-24T10:46:44;7.90;58.70
72338;DHT22;60294;64.134;-21.862;2023-04-24T10:49:10;7.90;59.40
72338;DHT22;60294;64.134;-21.862;2023-04-24T10:56:53;8.20;58.10
72338;DHT22;60294;64.134;-21.862;2023-04-24T10:59:27;8.40;58.00
72338;DHT22;60294;64.134;-21.862;2023-04-24T11:01:54;8.20;56.60
72338;DHT22;60294;64.134;-21.862;2023-04-24T11:04:30;8.30;56.80
72338;DHT22;60294;64.134;-21.862;2023-04-24T11:06:57;8.60;55.30
72338;DHT22;60294;64.134;-21.862;2023-04-24T11:09:26;8.60;54.20
72338;DHT22;60294;64.134;-21.862;2023-04-24T11:12:06;8.50;56.00
72338;DHT22;60294;64.134;-21.862;2023-04-24T11:17:35;9.00;54.60
72338;DHT22;60294;64.134;-21.862;2023-04-24T11:20:17;9.10;53.70
72338;DHT22;60294;64.134;-21.862;2023-04-24T11:22:43;8.60;53.30
72338;DHT22;60294;64.134;-21.862;2023-04-24T11:25:09;8.80;53.60
72338;DHT22;60294;64.134;-21.862;2023-04-24T11:27:41;8.70;53.60
72338;DHT22;60294;64.134;-21.862;2023-04-24T11:30:08;8.70;54.40
72338;DHT22;60294;64.134;-21.862;2023-04-24T11:35:05;9.20;52.60
72338;DHT22;60294;64.134;-21.862;2023-04-24T11:37:40;9.10;52.50
72338;DHT22;60294;64.134;-21.862;2023-04-24T11:40:07;9.20;51.60
72338;DHT22;60294;64.134;-21.862;2023-04-24T11:42:45;9.50;51.50
72338;DHT22;60294;64.134;-21.862;2023-04-24T11:45:25;9.80;50.70
72338;DHT22;60294;64.134;-21.862;2023-04-24T11:47:51;9.90;50.00
72338;DHT22;60294;64.134;-21.862;2023-04-24T11:50:20;10.00;49.30
72338;DHT22;60294;64.134;-21.862;2023-04-24T11:52:48;9.50;50.10
72338;DHT22;60294;64.134;-21.862;2023-04-24T11:57:43;10.30;50.60
72338;DHT22;60294;64.134;-21.862;2023-04-24T12:00:16;10.50;48.30
72338;DHT22;60294;64.134;-21.862;2023-04-24T12:02:46;10.50;46.90
72338;DHT22;60294;64.134;-21.862;2023-04-24T12:05:27;10.60;47.00
72338;DHT22;60294;64.134;-21.862;2023-04-24T12:07:54;10.50;46.80
72338;DHT22;60294;64.134;-21.862;2023-04-24T12:10:28;10.30;47.20
72338;DHT22;60294;64.134;-21.862;2023-04-24T12:12:56;10.80;47.10
72338;DHT22;60294;64.134;-21.862;2023-04-24T12:15:23;11.10;46.70
72338;DHT22;60294;64.134;-21.862;2023-04-24T12:17:54;11.10;45.50
72338;DHT22;60294;64.134;-21.862;2023-04-24T12:20:29;11.40;45.60
72338;DHT22;60294;64.134;-21.862;2023-04-24T12:23:00;11.60;45.50
72338;DHT22;60294;64.134;-21.862;2023-04-24T12:25:35;11.70;45.80
72338;DHT22;60294;64.134;-21.862;2023-04-24T12:30:34;11.80;44.10
72338;DHT22;60294;64.134;-21.862;2023-04-24T12:33:02;11.40;45.60
72338;DHT22;60294;64.134;-21.862;2023-04-24T12:35:29;11.10;46.20
72338;DHT22;60294;64.134;-21.862;2023-04-24T12:38:06;10.90;46.00
72338;DHT22;60294;64.134;-21.862;2023-04-24T12:40:32;11.30;46.10
72338;DHT22;60294;64.134;-21.862;2023-04-24T12:42:58;11.30;45.20
72338;DHT22;60294;64.134;-21.862;2023-04-24T12:45:24;11.30;45.20
72338;DHT22;60294;64.134;-21.862;2023-04-24T12:47:51;10.90;45.10
72338;DHT22;60294;64.134;-21.862;2023-04-24T12:50:17;10.90;44.80
72338;DHT22;60294;64.134;-21.862;2023-04-24T12:52:43;11.10;45.60
72338;DHT22;60294;64.134;-21.862;2023-04-24T12:55:09;11.30;45.40
72338;DHT22;60294;64.134;-21.862;2023-04-24T12:57:37;11.50;45.30
72338;DHT22;60294;64.134;-21.862;2023-04-24T13:00:04;11.30;44.80
72338;DHT22;60294;64.134;-21.862;2023-04-24T13:02:30;11.10;45.50
72338;DHT22;60294;64.134;-21.862;2023-04-24T13:04:57;11.10;46.10
72338;DHT22;60294;64.134;-21.862;2023-04-24T13:07:23;11.40;45.40
72338;DHT22;60294;64.134;-21.862;2023-04-24T13:09:50;11.40;43.80
72338;DHT22;60294;64.134;-21.862;2023-04-24T13:12:17;10.00;51.70
72338;DHT22;60294;64.134;-21.862;2023-04-24T13:14:43;9.90;53.40
72338;DHT22;60294;64.134;-21.862;2023-04-24T13:17:09;9.40;54.10
72338;DHT22;60294;64.134;-21.862;2023-04-24T13:19:40;9.90;52.70
72338;DHT22;60294;64.134;-21.862;2023-04-24T13:22:06;8.60;54.10
72338;DHT22;60294;64.134;-21.862;2023-04-24T13:24:32;8.70;54.60
72338;DHT22;60294;64.134;-21.862;2023-04-24T13:26:59;8.60;54.90
72338;DHT22;60294;64.134;-21.862;2023-04-24T13:29:26;8.70;57.60
72338;DHT22;60294;64.134;-21.862;2023-04-24T13:31:53;8.20;58.00
72338;DHT22;60294;64.134;-21.862;2023-04-24T13:34:21;8.40;59.10
72338;DHT22;60294;64.134;-21.862;2023-04-24T13:36:47;8.00;57.80
72338;DHT22;60294;64.134;-21.862;2023-04-24T13:39:13;8.20;58.40
72338;DHT22;60294;64.134;-21.862;2023-04-24T13:41:39;8.30;59.70
72338;DHT22;60294;64.134;-21.862;2023-04-24T13:44:06;8.60;58.50
72338;DHT22;60294;64.134;-21.862;2023-04-24T13:46:31;8.00;57.70
72338;DHT22;60294;64.134;-21.862;2023-04-24T13:48:58;8.50;59.00
72338;DHT22;60294;64.134;-21.862;2023-04-24T13:51:27;8.80;57.80
72338;DHT22;60294;64.134;-21.862;2023-04-24T13:53:53;9.10;56.30
72338;DHT22;60294;64.134;-21.862;2023-04-24T13:56:19;9.00;55.80
72338;DHT22;60294;64.134;-21.862;2023-04-24T13:58:46;8.10;59.80
72338;DHT22;60294;64.134;-21.862;2023-04-24T14:01:12;7.70;59.80
72338;DHT22;60294;64.134;-21.862;2023-04-24T14:03:38;8.20;59.00
72338;DHT22;60294;64.134;-21.862;2023-04-24T14:06:04;7.90;59.10
72338;DHT22;60294;64.134;-21.862;2023-04-24T14:08:32;8.30;59.30
72338;DHT22;60294;64.134;-21.862;2023-04-24T14:10:58;8.60;58.30
72338;DHT22;60294;64.134;-21.862;2023-04-24T14:13:24;8.60;57.90
72338;DHT22;60294;64.134;-21.862;2023-04-24T14:15:50;8.60;55.20
72338;DHT22;60294;64.134;-21.862;2023-04-24T14:18:16;9.70;53.20
72338;DHT22;60294;64.134;-21.862;2023-04-24T14:20:42;10.50;51.70
72338;DHT22;60294;64.134;-21.862;2023-04-24T14:23:08;11.60;50.50
72338;DHT22;60294;64.134;-21.862;2023-04-24T14:25:34;11.80;48.70
72338;DHT22;60294;64.134;-21.862;2023-04-24T14:28:00;11.60;49.40
72338;DHT22;60294;64.134;-21.862;2023-04-24T14:30:26;10.70;50.50
72338;DHT22;60294;64.134;-21.862;2023-04-24T14:32:51;10.60;50.10
72338;DHT22;60294;64.134;-21.862;2023-04-24T14:35:17;11.40;48.70
72338;DHT22;60294;64.134;-21.862;2023-04-24T14:37:43;10.40;51.80
72338;DHT22;60294;64.134;-21.862;2023-04-24T14:40:09;10.30;51.40
72338;DHT22;60294;64.134;-21.862;2023-04-24T14:42:35;10.00;52.60
72338;DHT22;60294;64.134;-21.862;2023-04-24T14:45:02;10.20;53.50
72338;DHT22;60294;64.134;-21.862;2023-04-24T14:47:28;10.40;52.40
72338;DHT22;60294;64.134;-21.862;2023-04-24T14:49:54;10.80;49.60
72338;DHT22;60294;64.134;-21.862;2023-04-24T14:52:20;12.10;47.60
72338;DHT22;60294;64.134;-21.862;2023-04-24T14:54:46;11.00;50.00
72338;DHT22;60294;64.134;-21.862;2023-04-24T14:57:12;9.40;55.30
72338;DHT22;60294;64.134;-21.862;2023-04-24T14:59:38;10.10;53.80
72338;DHT22;60294;64.134;-21.862;2023-04-24T15:02:05;10.10;53.50
72338;DHT22;60294;64.134;-21.862;2023-04-24T15:04:31;9.50;53.50
72338;DHT22;60294;64.134;-21.862;2023-04-24T15:06:57;9.70;52.50
72338;DHT22;60294;64.134;-21.862;2023-04-24T15:09:24;9.00;54.80
72338;DHT22;60294;64.134;-21.862;2023-04-24T15:11:51;8.90;56.00
72338;DHT22;60294;64.134;-21.862;2023-04-24T15:14:17;9.30;55.10
72338;DHT22;60294;64.134;-21.862;2023-04-24T15:16:43;9.40;53.30
72338;DHT22;60294;64.134;-21.862;2023-04-24T15:19:10;8.50;56.70
72338;DHT22;60294;64.134;-21.862;2023-04-24T15:21:37;8.70;55.60
72338;DHT22;60294;64.134;-21.862;2023-04-24T15:24:04;8.80;55.60
72338;DHT22;60294;64.134;-21.862;2023-04-24T15:26:30;8.40;55.40
72338;DHT22;60294;64.134;-21.862;2023-04-24T15:28:56;8.50;54.10
72338;DHT22;60294;64.134;-21.862;2023-04-24T15:31:22;8.80;53.80
72338;DHT22;60294;64.134;-21.862;2023-04-24T15:33:51;10.40;49.70
72338;DHT22;60294;64.134;-21.862;2023-04-24T15:36:18;10.80;47.50
72338;DHT22;60294;64.134;-21.862;2023-04-24T15:38:44;12.20;44.20
72338;DHT22;60294;64.134;-21.862;2023-04-24T15:41:10;12.00;45.60
72338;DHT22;60294;64.134;-21.862;2023-04-24T15:43:37;11.90;44.00
72338;DHT22;60294;64.134;-21.862;2023-04-24T15:46:04;12.90;42.20
72338;DHT22;60294;64.134;-21.862;2023-04-24T15:48:31;13.40;39.00
72338;DHT22;60294;64.134;-21.862;2023-04-24T15:50:57;12.60;42.50
72338;DHT22;60294;64.134;-21.862;2023-04-24T15:53:24;12.10;42.90